Terminal Aerodrome Forecast
Issued by NWS

Home | Current Version | Previous Version | Text Only | Print | Product List | Glossary On
Versions: 1 2 3 4 5 6 7 8 9 10 11 12 13 14
000
FTUS46 KSEW 290500
TAFPAE
TAF
KPAE 290536Z 2906/3006 34005KT P6SM BKN025
     FM291100 18004KT P6SM OVC020
     FM291300 15003KT P6SM OVC008
     FM291700 20007KT P6SM BKN008 OVC020
     FM292100 23006KT P6SM VCSH BKN020 OVC050=

USA.gov is the U.S. government's official web portal to all federal, state and local government web resources and services.